sensor_id;sensor_type;location;lat;lon;timestamp;P1;durP1;ratioP1;P2;durP2;ratioP2
37771;SDS011;23610;59.380;24.642;2024-01-16T00:04:29;6.30;;;3.37;;
37771;SDS011;23610;59.380;24.642;2024-01-16T00:09:45;6.93;;;4.50;;
37771;SDS011;23610;59.380;24.642;2024-01-16T00:15:15;9.60;;;4.40;;
37771;SDS011;23610;59.380;24.642;2024-01-16T00:20:31;11.53;;;4.33;;
37771;SDS011;23610;59.380;24.642;2024-01-16T00:26:01;10.20;;;4.47;;
37771;SDS011;23610;59.380;24.642;2024-01-16T00:31:18;7.53;;;3.83;;
37771;SDS011;23610;59.380;24.642;2024-01-16T00:36:48;12.07;;;5.43;;
37771;SDS011;23610;59.380;24.642;2024-01-16T00:42:04;8.77;;;5.17;;
37771;SDS011;23610;59.380;24.642;2024-01-16T00:47:34;8.97;;;4.40;;
37771;SDS011;23610;59.380;24.642;2024-01-16T00:52:50;6.90;;;4.17;;
37771;SDS011;23610;59.380;24.642;2024-01-16T00:58:21;12.30;;;5.57;;
37771;SDS011;23610;59.380;24.642;2024-01-16T01:03:38;11.33;;;4.63;;
37771;SDS011;23610;59.380;24.642;2024-01-16T01:09:08;11.77;;;5.60;;
37771;SDS011;23610;59.380;24.642;2024-01-16T01:14:26;9.53;;;4.83;;
37771;SDS011;23610;59.380;24.642;2024-01-16T01:19:56;9.07;;;4.47;;
37771;SDS011;23610;59.380;24.642;2024-01-16T01:25:12;9.00;;;4.77;;
37771;SDS011;23610;59.380;24.642;2024-01-16T01:30:42;11.50;;;4.83;;
37771;SDS011;23610;59.380;24.642;2024-01-16T01:35:58;7.60;;;4.00;;
37771;SDS011;23610;59.380;24.642;2024-01-16T01:41:28;9.97;;;4.77;;
37771;SDS011;23610;59.380;24.642;2024-01-16T01:46:44;10.93;;;4.97;;
37771;SDS011;23610;59.380;24.642;2024-01-16T01:52:14;12.50;;;4.00;;
37771;SDS011;23610;59.380;24.642;2024-01-16T01:57:30;13.87;;;3.83;;
37771;SDS011;23610;59.380;24.642;2024-01-16T02:03:01;9.55;;;4.30;;
37771;SDS011;23610;59.380;24.642;2024-01-16T02:08:17;8.07;;;3.77;;
37771;SDS011;23610;59.380;24.642;2024-01-16T02:13:47;13.97;;;4.87;;
37771;SDS011;23610;59.380;24.642;2024-01-16T02:19:03;10.67;;;4.43;;
37771;SDS011;23610;59.380;24.642;2024-01-16T02:24:33;9.70;;;4.93;;
37771;SDS011;23610;59.380;24.642;2024-01-16T02:29:49;15.37;;;4.93;;
37771;SDS011;23610;59.380;24.642;2024-01-16T02:35:19;14.10;;;4.60;;
37771;SDS011;23610;59.380;24.642;2024-01-16T02:40:35;12.07;;;5.17;;
37771;SDS011;23610;59.380;24.642;2024-01-16T02:46:05;10.87;;;4.93;;
37771;SDS011;23610;59.380;24.642;2024-01-16T02:51:21;7.93;;;4.20;;
37771;SDS011;23610;59.380;24.642;2024-01-16T02:56:51;10.77;;;3.90;;
37771;SDS011;23610;59.380;24.642;2024-01-16T03:02:07;10.60;;;4.27;;
37771;SDS011;23610;59.380;24.642;2024-01-16T03:07:37;7.00;;;3.77;;
37771;SDS011;23610;59.380;24.642;2024-01-16T03:13:07;14.47;;;4.57;;
37771;SDS011;23610;59.380;24.642;2024-01-16T03:18:23;13.17;;;5.07;;
37771;SDS011;23610;59.380;24.642;2024-01-16T03:23:53;13.60;;;4.37;;
37771;SDS011;23610;59.380;24.642;2024-01-16T03:29:09;11.33;;;5.07;;
37771;SDS011;23610;59.380;24.642;2024-01-16T03:34:40;8.25;;;3.80;;
37771;SDS011;23610;59.380;24.642;2024-01-16T03:39:56;11.50;;;4.00;;
37771;SDS011;23610;59.380;24.642;2024-01-16T03:45:26;13.47;;;4.10;;
37771;SDS011;23610;59.380;24.642;2024-01-16T03:50:42;10.50;;;3.33;;
37771;SDS011;23610;59.380;24.642;2024-01-16T03:56:12;9.63;;;3.43;;
37771;SDS011;23610;59.380;24.642;2024-01-16T04:01:31;11.93;;;4.50;;
37771;SDS011;23610;59.380;24.642;2024-01-16T04:07:02;13.77;;;4.27;;
37771;SDS011;23610;59.380;24.642;2024-01-16T04:12:18;6.30;;;3.73;;
37771;SDS011;23610;59.380;24.642;2024-01-16T04:17:48;6.73;;;3.13;;
37771;SDS011;23610;59.380;24.642;2024-01-16T04:23:04;10.93;;;4.70;;
37771;SDS011;23610;59.380;24.642;2024-01-16T04:28:34;8.53;;;3.30;;
37771;SDS011;23610;59.380;24.642;2024-01-16T04:33:52;11.73;;;3.47;;
37771;SDS011;23610;59.380;24.642;2024-01-16T04:39:23;5.47;;;2.10;;
37771;SDS011;23610;59.380;24.642;2024-01-16T04:44:39;4.13;;;2.20;;
37771;SDS011;23610;59.380;24.642;2024-01-16T04:50:09;3.43;;;2.17;;
37771;SDS011;23610;59.380;24.642;2024-01-16T04:55:25;8.93;;;2.20;;
37771;SDS011;23610;59.380;24.642;2024-01-16T05:00:56;7.47;;;2.65;;
37771;SDS011;23610;59.380;24.642;2024-01-16T05:06:12;4.47;;;2.17;;
37771;SDS011;23610;59.380;24.642;2024-01-16T05:11:43;3.58;;;2.05;;
37771;SDS011;23610;59.380;24.642;2024-01-16T05:16:59;9.47;;;3.97;;
37771;SDS011;23610;59.380;24.642;2024-01-16T05:22:29;6.28;;;3.88;;
37771;SDS011;23610;59.380;24.642;2024-01-16T05:27:46;7.50;;;3.33;;
37771;SDS011;23610;59.380;24.642;2024-01-16T05:33:15;4.23;;;3.27;;
37771;SDS011;23610;59.380;24.642;2024-01-16T05:38:32;4.13;;;2.20;;
37771;SDS011;23610;59.380;24.642;2024-01-16T05:44:02;2.87;;;2.10;;
37771;SDS011;23610;59.380;24.642;2024-01-16T05:49:20;3.57;;;2.23;;
37771;SDS011;23610;59.380;24.642;2024-01-16T05:54:49;4.40;;;2.20;;
37771;SDS011;23610;59.380;24.642;2024-01-16T06:00:06;8.43;;;2.63;;
37771;SDS011;23610;59.380;24.642;2024-01-16T06:05:35;3.27;;;2.67;;
37771;SDS011;23610;59.380;24.642;2024-01-16T06:10:52;4.83;;;1.47;;
37771;SDS011;23610;59.380;24.642;2024-01-16T06:16:21;3.10;;;1.93;;
37771;SDS011;23610;59.380;24.642;2024-01-16T06:21:38;2.63;;;1.60;;
37771;SDS011;23610;59.380;24.642;2024-01-16T06:27:07;7.43;;;1.93;;
37771;SDS011;23610;59.380;24.642;2024-01-16T06:32:24;3.50;;;1.77;;
37771;SDS011;23610;59.380;24.642;2024-01-16T06:37:53;5.03;;;1.30;;
37771;SDS011;23610;59.380;24.642;2024-01-16T06:43:10;3.40;;;2.00;;
37771;SDS011;23610;59.380;24.642;2024-01-16T06:48:39;3.50;;;1.37;;
37771;SDS011;23610;59.380;24.642;2024-01-16T06:53:56;3.83;;;1.60;;
37771;SDS011;23610;59.380;24.642;2024-01-16T06:59:25;6.67;;;1.80;;
37771;SDS011;23610;59.380;24.642;2024-01-16T07:04:42;12.17;;;2.37;;
37771;SDS011;23610;59.380;24.642;2024-01-16T07:10:14;4.80;;;2.37;;
37771;SDS011;23610;59.380;24.642;2024-01-16T07:15:34;1.70;;;1.20;;
37771;SDS011;23610;59.380;24.642;2024-01-16T07:21:03;17.30;;;6.97;;
37771;SDS011;23610;59.380;24.642;2024-01-16T07:26:30;2.20;;;1.73;;
37771;SDS011;23610;59.380;24.642;2024-01-16T07:31:59;3.80;;;2.27;;
37771;SDS011;23610;59.380;24.642;2024-01-16T07:37:16;4.27;;;1.40;;
37771;SDS011;23610;59.380;24.642;2024-01-16T07:42:46;3.93;;;1.63;;
37771;SDS011;23610;59.380;24.642;2024-01-16T07:48:03;0.95;;;0.70;;
37771;SDS011;23610;59.380;24.642;2024-01-16T07:53:32;2.53;;;1.13;;
37771;SDS011;23610;59.380;24.642;2024-01-16T07:58:49;1.30;;;1.20;;
37771;SDS011;23610;59.380;24.642;2024-01-16T08:04:18;0.90;;;0.80;;
37771;SDS011;23610;59.380;24.642;2024-01-16T08:09:35;1.87;;;0.80;;
37771;SDS011;23610;59.380;24.642;2024-01-16T08:15:05;1.07;;;0.90;;
37771;SDS011;23610;59.380;24.642;2024-01-16T08:20:22;4.68;;;1.50;;
37771;SDS011;23610;59.380;24.642;2024-01-16T08:25:54;1.80;;;0.93;;
37771;SDS011;23610;59.380;24.642;2024-01-16T08:31:11;2.53;;;1.60;;
37771;SDS011;23610;59.380;24.642;2024-01-16T08:36:40;3.30;;;1.87;;
37771;SDS011;23610;59.380;24.642;2024-01-16T08:41:57;1.50;;;1.00;;
37771;SDS011;23610;59.380;24.642;2024-01-16T08:47:26;3.03;;;1.60;;
37771;SDS011;23610;59.380;24.642;2024-01-16T08:52:43;3.53;;;1.30;;
37771;SDS011;23610;59.380;24.642;2024-01-16T08:58:12;2.57;;;1.23;;
37771;SDS011;23610;59.380;24.642;2024-01-16T09:03:29;4.00;;;1.03;;
37771;SDS011;23610;59.380;24.642;2024-01-16T09:08:58;1.60;;;1.40;;
37771;SDS011;23610;59.380;24.642;2024-01-16T09:14:28;2.10;;;1.73;;
37771;SDS011;23610;59.380;24.642;2024-01-16T09:19:44;3.80;;;2.80;;
37771;SDS011;23610;59.380;24.642;2024-01-16T09:25:14;2.23;;;1.50;;
37771;SDS011;23610;59.380;24.642;2024-01-16T09:30:33;1.37;;;1.20;;
37771;SDS011;23610;59.380;24.642;2024-01-16T09:36:02;28.13;;;11.50;;
37771;SDS011;23610;59.380;24.642;2024-01-16T09:41:18;14.17;;;7.90;;
37771;SDS011;23610;59.380;24.642;2024-01-16T09:46:51;2.80;;;2.20;;
37771;SDS011;23610;59.380;24.642;2024-01-16T09:52:10;2.73;;;2.00;;
37771;SDS011;23610;59.380;24.642;2024-01-16T09:57:41;9.03;;;2.50;;
37771;SDS011;23610;59.380;24.642;2024-01-16T10:02:58;5.88;;;5.28;;
37771;SDS011;23610;59.380;24.642;2024-01-16T10:08:29;4.30;;;2.17;;
37771;SDS011;23610;59.380;24.642;2024-01-16T10:13:46;11.38;;;2.45;;
37771;SDS011;23610;59.380;24.642;2024-01-16T10:19:15;1.80;;;1.70;;
37771;SDS011;23610;59.380;24.642;2024-01-16T10:25:09;3.47;;;1.63;;
37771;SDS011;23610;59.380;24.642;2024-01-16T10:30:44;2.60;;;1.90;;
37771;SDS011;23610;59.380;24.642;2024-01-16T10:36:07;4.17;;;1.90;;
37771;SDS011;23610;59.380;24.642;2024-01-16T10:41:41;10.77;;;2.58;;
37771;SDS011;23610;59.380;24.642;2024-01-16T10:47:11;10.17;;;2.70;;
37771;SDS011;23610;59.380;24.642;2024-01-16T10:52:48;6.63;;;3.43;;
37771;SDS011;23610;59.380;24.642;2024-01-16T10:58:05;8.73;;;3.30;;
37771;SDS011;23610;59.380;24.642;2024-01-16T11:03:57;14.77;;;6.63;;
37771;SDS011;23610;59.380;24.642;2024-01-16T11:09:13;10.13;;;4.97;;
37771;SDS011;23610;59.380;24.642;2024-01-16T11:14:45;27.87;;;13.43;;
37771;SDS011;23610;59.380;24.642;2024-01-16T11:20:09;25.83;;;12.70;;
37771;SDS011;23610;59.380;24.642;2024-01-16T11:26:22;9.03;;;4.20;;
37771;SDS011;23610;59.380;24.642;2024-01-16T11:31:57;7.13;;;3.10;;
37771;SDS011;23610;59.380;24.642;2024-01-16T11:37:43;11.63;;;3.40;;
37771;SDS011;23610;59.380;24.642;2024-01-16T11:43:34;4.33;;;2.80;;
37771;SDS011;23610;59.380;24.642;2024-01-16T11:49:03;11.23;;;3.30;;
37771;SDS011;23610;59.380;24.642;2024-01-16T11:54:20;11.70;;;3.63;;
37771;SDS011;23610;59.380;24.642;2024-01-16T12:05:26;6.70;;;2.80;;
37771;SDS011;23610;59.380;24.642;2024-01-16T12:10:59;4.53;;;2.37;;
37771;SDS011;23610;59.380;24.642;2024-01-16T12:16:18;8.67;;;3.63;;
37771;SDS011;23610;59.380;24.642;2024-01-16T12:21:50;8.00;;;3.00;;
37771;SDS011;23610;59.380;24.642;2024-01-16T12:27:06;13.77;;;3.47;;
37771;SDS011;23610;59.380;24.642;2024-01-16T12:32:36;12.00;;;4.37;;
37771;SDS011;23610;59.380;24.642;2024-01-16T12:38:00;10.07;;;2.83;;
37771;SDS011;23610;59.380;24.642;2024-01-16T12:43:33;8.83;;;2.80;;
37771;SDS011;23610;59.380;24.642;2024-01-16T12:48:51;6.90;;;2.27;;
37771;SDS011;23610;59.380;24.642;2024-01-16T12:54:32;37.40;;;14.23;;
37771;SDS011;23610;59.380;24.642;2024-01-16T12:59:48;11.53;;;5.10;;
37771;SDS011;23610;59.380;24.642;2024-01-16T13:05:22;8.57;;;4.37;;
37771;SDS011;23610;59.380;24.642;2024-01-16T13:10:40;5.67;;;2.77;;
37771;SDS011;23610;59.380;24.642;2024-01-16T13:16:10;8.03;;;4.40;;
37771;SDS011;23610;59.380;24.642;2024-01-16T13:21:29;6.03;;;3.80;;
37771;SDS011;23610;59.380;24.642;2024-01-16T13:26:59;7.53;;;2.97;;
37771;SDS011;23610;59.380;24.642;2024-01-16T13:32:16;24.80;;;9.10;;
37771;SDS011;23610;59.380;24.642;2024-01-16T13:37:45;6.07;;;4.43;;
37771;SDS011;23610;59.380;24.642;2024-01-16T13:43:01;6.60;;;2.83;;
37771;SDS011;23610;59.380;24.642;2024-01-16T13:48:32;6.03;;;4.28;;
37771;SDS011;23610;59.380;24.642;2024-01-16T13:53:48;3.37;;;2.73;;
37771;SDS011;23610;59.380;24.642;2024-01-16T13:59:18;7.20;;;2.50;;
37771;SDS011;23610;59.380;24.642;2024-01-16T14:04:35;60.50;;;26.00;;
37771;SDS011;23610;59.380;24.642;2024-01-16T14:10:05;89.70;;;38.10;;
37771;SDS011;23610;59.380;24.642;2024-01-16T14:15:26;11.77;;;4.77;;
37771;SDS011;23610;59.380;24.642;2024-01-16T14:20:57;24.25;;;12.40;;
37771;SDS011;23610;59.380;24.642;2024-01-16T14:26:14;15.35;;;4.00;;
37771;SDS011;23610;59.380;24.642;2024-01-16T14:31:44;6.07;;;4.00;;
37771;SDS011;23610;59.380;24.642;2024-01-16T14:37:02;3.50;;;1.70;;
37771;SDS011;23610;59.380;24.642;2024-01-16T14:42:33;4.65;;;2.42;;
37771;SDS011;23610;59.380;24.642;2024-01-16T14:47:50;6.30;;;3.20;;
37771;SDS011;23610;59.380;24.642;2024-01-16T14:53:19;5.17;;;2.90;;
37771;SDS011;23610;59.380;24.642;2024-01-16T14:58:35;3.83;;;2.07;;
37771;SDS011;23610;59.380;24.642;2024-01-16T15:04:05;10.50;;;6.93;;
37771;SDS011;23610;59.380;24.642;2024-01-16T15:09:35;9.53;;;4.40;;
37771;SDS011;23610;59.380;24.642;2024-01-16T15:15:08;6.93;;;3.47;;
37771;SDS011;23610;59.380;24.642;2024-01-16T15:20:27;7.20;;;4.00;;
37771;SDS011;23610;59.380;24.642;2024-01-16T15:25:57;76.43;;;32.00;;
37771;SDS011;23610;59.380;24.642;2024-01-16T15:31:17;25.93;;;12.73;;
37771;SDS011;23610;59.380;24.642;2024-01-16T15:36:47;10.67;;;5.37;;
37771;SDS011;23610;59.380;24.642;2024-01-16T15:42:03;8.10;;;4.03;;
37771;SDS011;23610;59.380;24.642;2024-01-16T15:47:33;10.40;;;5.17;;
37771;SDS011;23610;59.380;24.642;2024-01-16T15:52:49;17.23;;;8.10;;
37771;SDS011;23610;59.380;24.642;2024-01-16T15:58:19;8.93;;;5.40;;
37771;SDS011;23610;59.380;24.642;2024-01-16T16:03:35;4.33;;;2.67;;
37771;SDS011;23610;59.380;24.642;2024-01-16T16:09:06;4.13;;;2.95;;
37771;SDS011;23610;59.380;24.642;2024-01-16T16:14:22;4.73;;;2.70;;
37771;SDS011;23610;59.380;24.642;2024-01-16T16:19:56;4.77;;;3.47;;
37771;SDS011;23610;59.380;24.642;2024-01-16T16:25:12;7.53;;;3.57;;
37771;SDS011;23610;59.380;24.642;2024-01-16T16:30:42;8.23;;;3.13;;
37771;SDS011;23610;59.380;24.642;2024-01-16T16:35:58;12.67;;;6.83;;
37771;SDS011;23610;59.380;24.642;2024-01-16T16:41:28;8.53;;;4.07;;
37771;SDS011;23610;59.380;24.642;2024-01-16T16:46:48;8.60;;;4.17;;
37771;SDS011;23610;59.380;24.642;2024-01-16T16:52:17;8.20;;;3.83;;
37771;SDS011;23610;59.380;24.642;2024-01-16T16:57:33;4.90;;;3.03;;
37771;SDS011;23610;59.380;24.642;2024-01-16T17:03:03;20.37;;;3.83;;
37771;SDS011;23610;59.380;24.642;2024-01-16T17:08:19;9.40;;;3.53;;
37771;SDS011;23610;59.380;24.642;2024-01-16T17:13:49;13.57;;;5.50;;
37771;SDS011;23610;59.380;24.642;2024-01-16T17:19:06;22.87;;;7.77;;
37771;SDS011;23610;59.380;24.642;2024-01-16T17:24:36;24.60;;;9.93;;
37771;SDS011;23610;59.380;24.642;2024-01-16T17:29:52;17.30;;;6.77;;
37771;SDS011;23610;59.380;24.642;2024-01-16T17:35:22;14.33;;;7.40;;
37771;SDS011;23610;59.380;24.642;2024-01-16T17:40:38;22.53;;;8.63;;
37771;SDS011;23610;59.380;24.642;2024-01-16T17:46:28;20.83;;;10.60;;
37771;SDS011;23610;59.380;24.642;2024-01-16T17:51:45;36.33;;;13.83;;
37771;SDS011;23610;59.380;24.642;2024-01-16T17:57:15;43.05;;;19.92;;
37771;SDS011;23610;59.380;24.642;2024-01-16T18:02:32;39.17;;;17.27;;
37771;SDS011;23610;59.380;24.642;2024-01-16T18:08:02;39.08;;;17.70;;
37771;SDS011;23610;59.380;24.642;2024-01-16T18:13:19;66.55;;;29.05;;
37771;SDS011;23610;59.380;24.642;2024-01-16T18:18:52;45.37;;;20.67;;
37771;SDS011;23610;59.380;24.642;2024-01-16T18:24:08;40.50;;;18.15;;
37771;SDS011;23610;59.380;24.642;2024-01-16T18:29:38;37.63;;;17.57;;
37771;SDS011;23610;59.380;24.642;2024-01-16T18:34:54;30.13;;;15.50;;
37771;SDS011;23610;59.380;24.642;2024-01-16T18:40:26;27.47;;;15.03;;
37771;SDS011;23610;59.380;24.642;2024-01-16T18:45:42;27.33;;;12.20;;
37771;SDS011;23610;59.380;24.642;2024-01-16T18:51:14;30.10;;;13.53;;
37771;SDS011;23610;59.380;24.642;2024-01-16T18:56:32;28.52;;;13.82;;
37771;SDS011;23610;59.380;24.642;2024-01-16T19:02:01;22.90;;;13.00;;
37771;SDS011;23610;59.380;24.642;2024-01-16T19:07:17;20.83;;;10.97;;
37771;SDS011;23610;59.380;24.642;2024-01-16T19:12:47;30.10;;;11.93;;
37771;SDS011;23610;59.380;24.642;2024-01-16T19:18:03;52.43;;;19.50;;
37771;SDS011;23610;59.380;24.642;2024-01-16T19:23:33;58.83;;;20.20;;
37771;SDS011;23610;59.380;24.642;2024-01-16T19:28:49;93.27;;;28.90;;
37771;SDS011;23610;59.380;24.642;2024-01-16T19:34:19;170.73;;;48.03;;
37771;SDS011;23610;59.380;24.642;2024-01-16T19:39:37;143.50;;;51.43;;
37771;SDS011;23610;59.380;24.642;2024-01-16T19:45:08;115.47;;;37.75;;
37771;SDS011;23610;59.380;24.642;2024-01-16T19:50:24;81.27;;;31.10;;
37771;SDS011;23610;59.380;24.642;2024-01-16T19:55:55;69.13;;;25.55;;
37771;SDS011;23610;59.380;24.642;2024-01-16T20:01:13;81.33;;;27.70;;
37771;SDS011;23610;59.380;24.642;2024-01-16T20:06:43;87.60;;;30.63;;
37771;SDS011;23610;59.380;24.642;2024-01-16T20:11:59;86.87;;;32.90;;
37771;SDS011;23610;59.380;24.642;2024-01-16T20:17:22;114.70;;;40.30;;
37771;SDS011;23610;59.380;24.642;2024-01-16T20:22:52;99.23;;;33.20;;
37771;SDS011;23610;59.380;24.642;2024-01-16T20:28:08;79.17;;;30.53;;
37771;SDS011;23610;59.380;24.642;2024-01-16T20:33:39;97.33;;;35.10;;
37771;SDS011;23610;59.380;24.642;2024-01-16T20:39:03;116.47;;;39.30;;
37771;SDS011;23610;59.380;24.642;2024-01-16T20:44:36;94.17;;;38.70;;
37771;SDS011;23610;59.380;24.642;2024-01-16T20:49:52;97.90;;;34.93;;
37771;SDS011;23610;59.380;24.642;2024-01-16T20:55:22;67.47;;;22.97;;
37771;SDS011;23610;59.380;24.642;2024-01-16T21:06:09;61.47;;;26.03;;
37771;SDS011;23610;59.380;24.642;2024-01-16T21:17:18;86.27;;;39.43;;
37771;SDS011;23610;59.380;24.642;2024-01-16T21:22:34;114.83;;;45.90;;
37771;SDS011;23610;59.380;24.642;2024-01-16T21:33:59;127.70;;;50.00;;
37771;SDS011;23610;59.380;24.642;2024-01-16T21:39:29;97.27;;;36.60;;
37771;SDS011;23610;59.380;24.642;2024-01-16T21:44:47;115.17;;;45.73;;
37771;SDS011;23610;59.380;24.642;2024-01-16T21:50:17;90.30;;;36.50;;
37771;SDS011;23610;59.380;24.642;2024-01-16T21:55:44;74.57;;;28.25;;
37771;SDS011;23610;59.380;24.642;2024-01-16T22:01:14;46.30;;;19.77;;
37771;SDS011;23610;59.380;24.642;2024-01-16T22:06:30;46.73;;;17.83;;
37771;SDS011;23610;59.380;24.642;2024-01-16T22:12:00;72.83;;;26.27;;
37771;SDS011;23610;59.380;24.642;2024-01-16T22:17:16;42.43;;;17.30;;
37771;SDS011;23610;59.380;24.642;2024-01-16T22:22:50;35.77;;;15.77;;
37771;SDS011;23610;59.380;24.642;2024-01-16T22:28:06;28.53;;;11.67;;
37771;SDS011;23610;59.380;24.642;2024-01-16T22:33:36;30.77;;;12.33;;
37771;SDS011;23610;59.380;24.642;2024-01-16T22:38:52;17.47;;;9.63;;
37771;SDS011;23610;59.380;24.642;2024-01-16T22:49:40;75.07;;;26.35;;
37771;SDS011;23610;59.380;24.642;2024-01-16T22:55:10;31.00;;;13.30;;
37771;SDS011;23610;59.380;24.642;2024-01-16T23:00:26;34.17;;;13.37;;
37771;SDS011;23610;59.380;24.642;2024-01-16T23:06:01;35.63;;;12.70;;
37771;SDS011;23610;59.380;24.642;2024-01-16T23:11:17;20.70;;;8.60;;
37771;SDS011;23610;59.380;24.642;2024-01-16T23:16:47;20.53;;;7.13;;
37771;SDS011;23610;59.380;24.642;2024-01-16T23:22:03;8.67;;;5.47;;
37771;SDS011;23610;59.380;24.642;2024-01-16T23:32:52;16.07;;;6.70;;
37771;SDS011;23610;59.380;24.642;2024-01-16T23:38:22;12.87;;;5.93;;
37771;SDS011;23610;59.380;24.642;2024-01-16T23:43:38;20.27;;;7.20;;
37771;SDS011;23610;59.380;24.642;2024-01-16T23:49:08;19.13;;;6.37;;
37771;SDS011;23610;59.380;24.642;2024-01-16T23:54:24;18.10;;;6.83;;
37771;SDS011;23610;59.380;24.642;2024-01-16T23:59:54;34.80;;;12.07;;
